Cody, Wyoming
Current Conditions -  °F | °C
As of 3:35 PM on Saturday 25 Oct 2014 (Local Time) from KCOD Reporting Station
Clear Clear  
Wind Chill: 73°   Ceiling: Unl
Heat Index: 73°   Visibility: 10mi
Dew Point: 27°   Wind: 14mph
Humidity: 18%   Direction: 120°ESE
Pressure: 29.88"   Gusts: NA
Location:  44.53°N, 109.05°W
Report Text: KCOD 252135Z 12012KT 10SM CLR 23/M03 A2988 RMK AO1
Loading
Personal Weather Stations






























Interactive Weather Map
Tropical Storm Tracking
New forecast layout! Learn more

10-Day Weather Forecast

Advertisements
Track Severe Weather on mobile